Lode — SFC9613 — position and weather

sailwx.info

Track history (hours):
 
Tides and Currents Weather Stations Pressure Air Temp Water Temp Dewpoint Dewpoint Depression Visibility Wind Speed Wind Dir Waves Ship Positions

Lode

Last reported at 2016-Sep-21 05:32 UTC. Time now 2016-Sep-26 13:55 UTC.
Position N 57°42' E 011°57'.

Length 11 m.

Type: Dredging. MMSI: 265680440.

Date/timePositionNaut miles runAvg speedWind from/ knotsBaromVisibWave heightAir tempDewpointWater temp
2016-Sep-21 05:32N 57°42' E 011°57'0 0.0
2016-Sep-21 03:32N 57°42' E 011°57'0 0.0
2016-Sep-21 02:32N 57°42' E 011°57'0 0.0
2016-Sep-20 17:32N 57°42' E 011°57'0 0.0
2016-Sep-20 14:32N 57°42' E 011°57'0 0.0
2016-Sep-20 13:32N 57°42' E 011°57'0 0.0
2016-Sep-20 10:32N 57°42' E 011°57'9 4.6
2016-Sep-20 08:33N 57°42' E 011°40'0 0.0
2016-Sep-20 07:33N 57°42' E 011°40'0 0.0
2016-Sep-20 06:33N 57°42' E 011°40'0 0.0
2016-Sep-20 02:30N 57°42' E 011°40'0 0.0
2016-Sep-19 23:33N 57°42' E 011°40'0 0.0
2016-Sep-19 19:33N 57°42' E 011°40'0 0.0
2016-Sep-19 18:33N 57°42' E 011°40'0 0.0
2016-Sep-19 16:30N 57°42' E 011°40'0 0.0
2016-Sep-19 14:33N 57°42' E 011°40'0 0.0
2016-Sep-19 13:30N 57°42' E 011°40'0 0.0
2016-Sep-19 12:33N 57°42' E 011°40'0 0.0
2016-Sep-19 11:33N 57°42' E 011°40'0 0.0
2016-Sep-19 09:33N 57°42' E 011°40'9 4.5
2016-Sep-19 07:33N 57°42' E 011°57'0 0.0
2016-Sep-19 06:33N 57°42' E 011°57'0 0.0
2016-Sep-19 03:33N 57°42' E 011°57'0 0.0
2016-Sep-19 02:33N 57°42' E 011°57'0 0.0
2016-Sep-19 00:33N 57°42' E 011°57'0 0.0
2016-Sep-18 19:33N 57°42' E 011°57'0 0.0
2016-Sep-18 15:33N 57°42' E 011°57'0 0.0
2016-Sep-18 14:33N 57°42' E 011°57'0 0.0
2016-Sep-18 10:33N 57°42' E 011°57'0 0.0
2016-Sep-18 09:33N 57°42' E 011°57'0 0.0
2016-Sep-18 02:33N 57°42' E 011°57'0 0.0
2016-Sep-18 01:33N 57°42' E 011°57'0 0.0
2016-Sep-18 00:33N 57°42' E 011°57'0 0.0
2016-Sep-17 22:33N 57°42' E 011°57'0 0.0
2016-Sep-17 21:33N 57°42' E 011°57'0 0.0
2016-Sep-17 20:33N 57°42' E 011°57'0 0.0
2016-Sep-17 19:15N 57°42' E 011°57'0 0.0
2016-Sep-17 13:33N 57°42' E 011°57'0 0.0
2016-Sep-17 12:33N 57°42' E 011°57'0 0.0
2016-Sep-17 10:33N 57°42' E 011°57'0 0.0
2016-Sep-17 09:33N 57°42' E 011°57'0 0.0
2016-Sep-17 08:33N 57°42' E 011°57'0 0.0
2016-Sep-17 07:33N 57°42' E 011°57'0 0.0
2016-Sep-17 05:33N 57°42' E 011°57'0 0.0
2016-Sep-17 04:33N 57°42' E 011°57'0 0.0
2016-Sep-17 00:31N 57°42' E 011°57'0 0.0
2016-Sep-16 17:31N 57°42' E 011°57'0 0.0
2016-Sep-16 15:31N 57°42' E 011°57'0 0.0
2016-Sep-16 12:31N 57°42' E 011°57'0 0.0
2016-Sep-16 09:31N 57°42' E 011°57'0 0.0
2016-Sep-16 07:31N 57°42' E 011°57'0 0.0
2016-Sep-16 03:31N 57°42' E 011°57'0 0.0
2016-Sep-16 02:31N 57°42' E 011°57'0 0.0
2016-Sep-16 00:31N 57°42' E 011°57'0 0.0
2016-Sep-15 22:31N 57°42' E 011°57'0 0.0
2016-Sep-15 21:31N 57°42' E 011°57'0 0.0
2016-Sep-15 20:31N 57°42' E 011°57'0 0.0
2016-Sep-15 18:31N 57°42' E 011°57'1 0.1
2016-Sep-15 12:33N 57°42' E 011°55'6 5.6
2016-Sep-15 11:33N 57°36' E 011°54'6 0.9
2016-Sep-15 04:33N 57°42' E 011°57'0 0.0
2016-Sep-15 03:33N 57°42' E 011°57'0 0.0
2016-Sep-15 01:33N 57°42' E 011°57'0 0.0
2016-Sep-14 22:33N 57°42' E 011°57'0 0.0
2016-Sep-14 21:33N 57°42' E 011°57'21 5.1
2016-Sep-14 17:33N 57°26' E 011°32'2 1.7
2016-Sep-14 16:23N 57°25' E 011°29'4 1.4
2016-Sep-14 13:27N 57°23' E 011°23'1 0.7
2016-Sep-14 12:22N 57°22' E 011°22'2 0.6
2016-Sep-14 09:33N 57°23' E 011°25'0 0.0
2016-Sep-14 08:27N 57°23' E 011°25'1921.1
2016-Sep-14 07:33N 57°39' E 011°44'7 7.1
2016-Sep-14 06:32N 57°42' E 011°57'0 0.0
2016-Sep-14 03:32N 57°42' E 011°57'0 0.0
2016-Sep-13 22:32N 57°42' E 011°57'0 0.0
2016-Sep-13 20:32N 57°42' E 011°57'0 0.0
2016-Sep-13 18:32N 57°42' E 011°57'0 0.0
2016-Sep-13 17:32N 57°42' E 011°57'0 0.0
2016-Sep-13 16:32N 57°42' E 011°57'13 2.6
2016-Sep-13 11:33N 57°31' E 011°44'1 0.6
2016-Sep-13 09:31N 57°31' E 011°47'1 0.7
2016-Sep-13 07:34N 57°32' E 011°49'1110.9
2016-Sep-13 06:33N 57°42' E 011°56'0 0.1
2016-Sep-13 04:31N 57°42' E 011°57'0 0.0
2016-Sep-13 02:31N 57°42' E 011°57'0 0.0
2016-Sep-12 23:31N 57°42' E 011°57'0 0.0
2016-Sep-12 21:31N 57°42' E 011°57'0 0.0
2016-Sep-12 19:31N 57°42' E 011°57'5 2.7
2016-Sep-12 17:33N 57°39' E 011°49'8 2.8
2016-Sep-12 14:33N 57°31' E 011°43'1 0.6
2016-Sep-12 13:33N 57°31' E 011°44'0 0.2
2016-Sep-12 12:33N 57°31' E 011°45'0 0.3
2016-Sep-12 11:33N 57°31' E 011°45'1 0.6
2016-Sep-12 10:33N 57°31' E 011°46'11 3.6
2016-Sep-12 07:33N 57°41' E 011°52'2 2.5
2016-Sep-12 06:33N 57°42' E 011°57'0 0.0
2016-Sep-12 03:33N 57°42' E 011°57'0 0.0
2016-Sep-12 01:33N 57°42' E 011°57'0 0.0
2016-Sep-11 23:33N 57°42' E 011°57'0 0.0
2016-Sep-11 22:33N 57°42' E 011°57'0 0.0
2016-Sep-11 21:33N 57°42' E 011°57'0 0.0
2016-Sep-11 20:33N 57°42' E 011°57'0 0.0
2016-Sep-11 19:33N 57°42' E 011°57'0 0.0
2016-Sep-11 18:33N 57°42' E 011°57'0 0.0
2016-Sep-11 17:33N 57°42' E 011°57'0 0.0
2016-Sep-11 16:33N 57°42' E 011°57'0 0.0
2016-Sep-11 15:33N 57°42' E 011°57'0 0.0
2016-Sep-11 14:33N 57°42' E 011°57'0 0.0
2016-Sep-11 13:33N 57°42' E 011°57'0 0.0
2016-Sep-11 12:33N 57°42' E 011°57'0 0.0
2016-Sep-11 11:33N 57°42' E 011°57'0 0.0
2016-Sep-11 08:33N 57°42' E 011°57'0 0.0
2016-Sep-11 07:33N 57°42' E 011°57'  
Track history (hours):
 
Tides and Currents Weather Stations Pressure Air Temp Water Temp Dewpoint Dewpoint Depression Visibility Wind Speed Wind Dir Waves Ship Positions

Lode

Last reported at 2016-Sep-21 05:32 UTC. Time now 2016-Sep-26 13:55 UTC.
Position N 57°42' E 011°57'.

Length 11 m.

Type: Dredging. MMSI: 265680440.

Date/timePositionNaut miles runAvg speedWind from/ knotsBaromVisibWave heightAir tempDewpointWater temp
2016-Sep-21 05:32N 57°42' E 011°57'0 0.0
2016-Sep-21 03:32N 57°42' E 011°57'0 0.0
2016-Sep-21 02:32N 57°42' E 011°57'0 0.0
2016-Sep-20 17:32N 57°42' E 011°57'0 0.0
2016-Sep-20 14:32N 57°42' E 011°57'0 0.0
2016-Sep-20 13:32N 57°42' E 011°57'0 0.0
2016-Sep-20 10:32N 57°42' E 011°57'9 4.6
2016-Sep-20 08:33N 57°42' E 011°40'0 0.0
2016-Sep-20 07:33N 57°42' E 011°40'0 0.0
2016-Sep-20 06:33N 57°42' E 011°40'0 0.0
2016-Sep-20 02:30N 57°42' E 011°40'0 0.0
2016-Sep-19 23:33N 57°42' E 011°40'0 0.0
2016-Sep-19 19:33N 57°42' E 011°40'0 0.0
2016-Sep-19 18:33N 57°42' E 011°40'0 0.0
2016-Sep-19 16:30N 57°42' E 011°40'0 0.0
2016-Sep-19 14:33N 57°42' E 011°40'0 0.0
2016-Sep-19 13:30N 57°42' E 011°40'0 0.0
2016-Sep-19 12:33N 57°42' E 011°40'0 0.0
2016-Sep-19 11:33N 57°42' E 011°40'0 0.0
2016-Sep-19 09:33N 57°42' E 011°40'9 4.5
2016-Sep-19 07:33N 57°42' E 011°57'0 0.0
2016-Sep-19 06:33N 57°42' E 011°57'0 0.0
2016-Sep-19 03:33N 57°42' E 011°57'0 0.0
2016-Sep-19 02:33N 57°42' E 011°57'0 0.0
2016-Sep-19 00:33N 57°42' E 011°57'0 0.0
2016-Sep-18 19:33N 57°42' E 011°57'0 0.0
2016-Sep-18 15:33N 57°42' E 011°57'0 0.0
2016-Sep-18 14:33N 57°42' E 011°57'0 0.0
2016-Sep-18 10:33N 57°42' E 011°57'0 0.0
2016-Sep-18 09:33N 57°42' E 011°57'0 0.0
2016-Sep-18 02:33N 57°42' E 011°57'0 0.0
2016-Sep-18 01:33N 57°42' E 011°57'0 0.0
2016-Sep-18 00:33N 57°42' E 011°57'0 0.0
2016-Sep-17 22:33N 57°42' E 011°57'0 0.0
2016-Sep-17 21:33N 57°42' E 011°57'0 0.0
2016-Sep-17 20:33N 57°42' E 011°57'0 0.0
2016-Sep-17 19:15N 57°42' E 011°57'0 0.0
2016-Sep-17 13:33N 57°42' E 011°57'0 0.0
2016-Sep-17 12:33N 57°42' E 011°57'0 0.0
2016-Sep-17 10:33N 57°42' E 011°57'0 0.0
2016-Sep-17 09:33N 57°42' E 011°57'0 0.0
2016-Sep-17 08:33N 57°42' E 011°57'0 0.0
2016-Sep-17 07:33N 57°42' E 011°57'0 0.0
2016-Sep-17 05:33N 57°42' E 011°57'0 0.0
2016-Sep-17 04:33N 57°42' E 011°57'0 0.0
2016-Sep-17 00:31N 57°42' E 011°57'0 0.0
2016-Sep-16 17:31N 57°42' E 011°57'0 0.0
2016-Sep-16 15:31N 57°42' E 011°57'0 0.0
2016-Sep-16 12:31N 57°42' E 011°57'0 0.0
2016-Sep-16 09:31N 57°42' E 011°57'0 0.0
2016-Sep-16 07:31N 57°42' E 011°57'0 0.0
2016-Sep-16 03:31N 57°42' E 011°57'0 0.0
2016-Sep-16 02:31N 57°42' E 011°57'0 0.0
2016-Sep-16 00:31N 57°42' E 011°57'0 0.0
2016-Sep-15 22:31N 57°42' E 011°57'0 0.0
2016-Sep-15 21:31N 57°42' E 011°57'0 0.0
2016-Sep-15 20:31N 57°42' E 011°57'0 0.0
2016-Sep-15 18:31N 57°42' E 011°57'1 0.1
2016-Sep-15 12:33N 57°42' E 011°55'6 5.6
2016-Sep-15 11:33N 57°36' E 011°54'6 0.9
2016-Sep-15 04:33N 57°42' E 011°57'0 0.0
2016-Sep-15 03:33N 57°42' E 011°57'0 0.0
2016-Sep-15 01:33N 57°42' E 011°57'0 0.0
2016-Sep-14 22:33N 57°42' E 011°57'0 0.0
2016-Sep-14 21:33N 57°42' E 011°57'21 5.1
2016-Sep-14 17:33N 57°26' E 011°32'2 1.7
2016-Sep-14 16:23N 57°25' E 011°29'4 1.4
2016-Sep-14 13:27N 57°23' E 011°23'1 0.7
2016-Sep-14 12:22N 57°22' E 011°22'2 0.6
2016-Sep-14 09:33N 57°23' E 011°25'0 0.0
2016-Sep-14 08:27N 57°23' E 011°25'1921.1
2016-Sep-14 07:33N 57°39' E 011°44'7 7.1
2016-Sep-14 06:32N 57°42' E 011°57'0 0.0
2016-Sep-14 03:32N 57°42' E 011°57'0 0.0
2016-Sep-13 22:32N 57°42' E 011°57'0 0.0
2016-Sep-13 20:32N 57°42' E 011°57'0 0.0
2016-Sep-13 18:32N 57°42' E 011°57'0 0.0
2016-Sep-13 17:32N 57°42' E 011°57'0 0.0
2016-Sep-13 16:32N 57°42' E 011°57'13 2.6
2016-Sep-13 11:33N 57°31' E 011°44'1 0.6
2016-Sep-13 09:31N 57°31' E 011°47'1 0.7
2016-Sep-13 07:34N 57°32' E 011°49'1110.9
2016-Sep-13 06:33N 57°42' E 011°56'0 0.1
2016-Sep-13 04:31N 57°42' E 011°57'0 0.0
2016-Sep-13 02:31N 57°42' E 011°57'0 0.0
2016-Sep-12 23:31N 57°42' E 011°57'0 0.0
2016-Sep-12 21:31N 57°42' E 011°57'0 0.0
2016-Sep-12 19:31N 57°42' E 011°57'5 2.7
2016-Sep-12 17:33N 57°39' E 011°49'8 2.8
2016-Sep-12 14:33N 57°31' E 011°43'1 0.6
2016-Sep-12 13:33N 57°31' E 011°44'0 0.2
2016-Sep-12 12:33N 57°31' E 011°45'0 0.3
2016-Sep-12 11:33N 57°31' E 011°45'1 0.6
2016-Sep-12 10:33N 57°31' E 011°46'11 3.6
2016-Sep-12 07:33N 57°41' E 011°52'2 2.5
2016-Sep-12 06:33N 57°42' E 011°57'0 0.0
2016-Sep-12 03:33N 57°42' E 011°57'0 0.0
2016-Sep-12 01:33N 57°42' E 011°57'0 0.0
2016-Sep-11 23:33N 57°42' E 011°57'0 0.0
2016-Sep-11 22:33N 57°42' E 011°57'0 0.0
2016-Sep-11 21:33N 57°42' E 011°57'0 0.0
2016-Sep-11 20:33N 57°42' E 011°57'0 0.0
2016-Sep-11 19:33N 57°42' E 011°57'0 0.0
2016-Sep-11 18:33N 57°42' E 011°57'0 0.0
2016-Sep-11 17:33N 57°42' E 011°57'0 0.0
2016-Sep-11 16:33N 57°42' E 011°57'0 0.0
2016-Sep-11 15:33N 57°42' E 011°57'0 0.0
2016-Sep-11 14:33N 57°42' E 011°57'0 0.0
2016-Sep-11 13:33N 57°42' E 011°57'0 0.0
2016-Sep-11 12:33N 57°42' E 011°57'0 0.0
2016-Sep-11 11:33N 57°42' E 011°57'0 0.0
2016-Sep-11 08:33N 57°42' E 011°57'0 0.0
2016-Sep-11 07:33N 57°42' E 011°57'  

Dump ship's entire track history